createdAt,value
2023-01-01T00:00:16.572Z,0.00
2023-01-01T00:01:16.682Z,0.00
2023-01-01T00:02:16.246Z,0.00
2023-01-01T00:03:16.205Z,0.00
2023-01-01T00:04:16.251Z,0.00
2023-01-01T00:05:16.189Z,0.00
2023-01-01T00:06:16.174Z,0.00
2023-01-01T00:07:16.177Z,0.00
2023-01-01T00:08:16.146Z,0.00
2023-01-01T00:09:16.139Z,0.00
2023-01-01T00:10:16.138Z,0.00
2023-01-01T00:11:16.122Z,0.00
2023-01-01T00:12:16.118Z,0.00
2023-01-01T00:13:16.118Z,0.00
2023-01-01T00:14:16.098Z,0.00
2023-01-01T00:15:16.083Z,0.00
2023-01-01T00:16:16.132Z,0.00
2023-01-01T00:17:16.066Z,0.00
2023-01-01T00:18:16.435Z,0.00
2023-01-01T00:19:16.048Z,0.00
2023-01-01T00:20:16.718Z,0.00
2023-01-01T00:21:16.020Z,0.00
2023-01-01T00:22:52.514Z,0.00
2023-01-01T00:23:16.415Z,0.00
2023-01-01T00:24:15.981Z,0.00
2023-01-01T00:25:15.981Z,0.00
2023-01-01T00:26:16.782Z,0.00
2023-01-01T00:27:15.953Z,0.00
2023-01-01T00:28:15.888Z,1.00
2023-01-01T00:29:16.330Z,0.00
2023-01-01T00:30:15.920Z,0.00
2023-01-01T00:31:15.908Z,0.00
2023-01-01T00:32:22.315Z,0.00
2023-01-01T00:33:16.470Z,0.00
2023-01-01T00:34:15.886Z,0.00
2023-01-01T00:35:15.869Z,0.00
2023-01-01T00:36:15.848Z,0.00
2023-01-01T00:37:15.872Z,0.00
2023-01-01T00:38:15.830Z,0.00
2023-01-01T00:39:16.261Z,0.00
2023-01-01T00:40:15.815Z,0.00
2023-01-01T00:41:15.802Z,0.00
2023-01-01T00:42:15.785Z,0.00
2023-01-01T00:43:15.782Z,0.00
2023-01-01T00:44:16.186Z,0.00
2023-01-01T00:45:21.484Z,0.00
2023-01-01T00:46:15.839Z,0.00
2023-01-01T00:47:15.752Z,0.00
2023-01-01T00:48:15.730Z,0.00
2023-01-01T00:49:16.158Z,0.00
2023-01-01T00:50:15.713Z,0.00
2023-01-01T00:51:16.503Z,0.00
2023-01-01T00:52:15.701Z,0.00
2023-01-01T00:53:16.005Z,0.00
2023-01-01T00:54:16.043Z,0.00
2023-01-01T00:55:15.655Z,0.00
2023-01-01T00:56:15.640Z,0.00
2023-01-01T00:57:15.642Z,0.00
2023-01-01T00:58:15.636Z,0.00
2023-01-01T00:59:15.567Z,1.00
2023-01-01T01:00:15.598Z,0.00
2023-01-01T01:01:15.692Z,0.00
2023-01-01T01:02:15.718Z,0.00
2023-01-01T01:03:15.614Z,0.00
2023-01-01T01:04:16.078Z,0.00
2023-01-01T01:05:16.318Z,0.00
2023-01-01T01:06:15.533Z,0.00
2023-01-01T01:07:15.536Z,0.00
2023-01-01T01:08:15.513Z,0.00
2023-01-01T01:09:15.952Z,0.00
2023-01-01T01:10:15.499Z,0.00
2023-01-01T01:11:15.718Z,0.00
2023-01-01T01:12:17.697Z,0.00
2023-01-01T01:13:15.472Z,0.00
2023-01-01T01:14:15.463Z,0.00
2023-01-01T01:15:15.442Z,0.00
2023-01-01T01:16:15.456Z,0.00
2023-01-01T01:17:15.868Z,0.00
2023-01-01T01:18:15.412Z,0.00
2023-01-01T01:19:15.414Z,0.00
2023-01-01T01:20:15.394Z,0.00
2023-01-01T01:21:15.412Z,0.00
2023-01-01T01:22:15.365Z,0.00
2023-01-01T01:23:15.375Z,0.00
2023-01-01T01:24:15.349Z,0.00
2023-01-01T01:25:15.338Z,0.00
2023-01-01T01:26:15.327Z,0.00
2023-01-01T01:27:15.317Z,0.00
2023-01-01T01:28:15.873Z,0.00
2023-01-01T01:29:15.304Z,0.00
2023-01-01T01:30:15.288Z,0.00
2023-01-01T01:31:15.336Z,0.00
2023-01-01T01:32:15.265Z,0.00
2023-01-01T01:33:15.612Z,0.00
2023-01-01T01:34:16.367Z,0.00
2023-01-01T01:35:15.236Z,0.00
2023-01-01T01:36:15.224Z,0.00
2023-01-01T01:37:15.219Z,0.00
2023-01-01T01:38:15.204Z,0.00
2023-01-01T01:39:15.192Z,0.00
2023-01-01T01:40:15.196Z,0.00
2023-01-01T01:41:26.738Z,0.00
2023-01-01T01:42:15.164Z,0.00
2023-01-01T01:43:15.169Z,0.00
2023-01-01T01:44:15.136Z,0.00
2023-01-01T01:45:15.127Z,0.00
2023-01-01T01:46:15.186Z,0.00
2023-01-01T01:47:15.109Z,0.00
2023-01-01T01:48:15.091Z,0.00
2023-01-01T01:49:15.124Z,0.00
2023-01-01T01:50:15.073Z,0.00
2023-01-01T01:51:15.065Z,0.00
2023-01-01T01:52:15.061Z,0.00
2023-01-01T01:53:15.088Z,0.00
2023-01-01T01:54:15.038Z,0.00
2023-01-01T01:55:15.032Z,0.00
2023-01-01T01:56:15.027Z,0.00
2023-01-01T01:57:15.004Z,0.00
2023-01-01T01:58:15.005Z,0.00
2023-01-01T01:59:15.022Z,0.00
2023-01-01T02:00:15.000Z,0.00
2023-01-01T02:01:15.110Z,0.00
2023-01-01T02:02:15.210Z,0.00
2023-01-01T02:03:14.984Z,0.00
2023-01-01T02:04:14.935Z,0.00
2023-01-01T02:05:14.932Z,0.00
2023-01-01T02:06:15.280Z,0.00
2023-01-01T02:07:15.400Z,0.00
2023-01-01T02:08:14.891Z,0.00
2023-01-01T02:09:14.844Z,1.00
2023-01-01T02:10:14.806Z,1.00
2023-01-01T02:11:21.622Z,0.00
2023-01-01T02:12:14.846Z,0.00
2023-01-01T02:13:14.835Z,0.00
2023-01-01T02:14:14.827Z,0.00
2023-01-01T02:15:14.829Z,0.00
2023-01-01T02:16:15.133Z,0.00
2023-01-01T02:17:14.793Z,0.00
2023-01-01T02:18:14.780Z,0.00
2023-01-01T02:19:14.786Z,0.00
2023-01-01T02:20:14.757Z,0.00
2023-01-01T02:21:14.759Z,0.00
2023-01-01T02:22:14.745Z,0.00
2023-01-01T02:23:14.733Z,0.00
2023-01-01T02:24:15.127Z,0.00
2023-01-01T02:25:14.705Z,0.00
2023-01-01T02:26:14.703Z,0.00
2023-01-01T02:27:14.685Z,0.00
2023-01-01T02:28:14.685Z,0.00
2023-01-01T02:29:15.052Z,0.00
2023-01-01T02:30:14.661Z,0.00
2023-01-01T02:31:18.274Z,0.00
2023-01-01T02:32:14.643Z,0.00
2023-01-01T02:33:14.625Z,0.00
2023-01-01T02:34:14.972Z,0.00
2023-01-01T02:35:14.599Z,0.00
2023-01-01T02:36:14.592Z,0.00
2023-01-01T02:37:14.592Z,0.00
2023-01-01T02:38:14.577Z,0.00
2023-01-01T02:39:14.977Z,0.00
2023-01-01T02:40:14.554Z,0.00
2023-01-01T02:41:14.961Z,0.00
2023-01-01T02:42:14.533Z,0.00
2023-01-01T02:43:14.516Z,0.00
2023-01-01T02:44:14.945Z,0.00
2023-01-01T02:45:14.908Z,0.00
2023-01-01T02:46:50.792Z,0.00
2023-01-01T02:47:50.196Z,0.00
2023-01-01T02:48:50.181Z,0.00
2023-01-01T02:49:51.064Z,0.00
2023-01-01T02:50:50.542Z,0.00
2023-01-01T02:51:50.167Z,0.00
2023-01-01T02:52:50.139Z,0.00
2023-01-01T02:53:50.135Z,0.00
2023-01-01T02:54:50.577Z,0.00
2023-01-01T02:55:50.123Z,0.00
2023-01-01T02:56:50.539Z,0.00
2023-01-01T02:57:50.089Z,0.00
2023-01-01T02:58:50.071Z,0.00
2023-01-01T02:59:50.068Z,0.00
2023-01-01T03:00:50.057Z,0.00
2023-01-01T03:01:50.147Z,0.00
2023-01-01T03:02:51.376Z,0.00
2023-01-01T03:03:50.029Z,0.00
2023-01-01T03:04:50.019Z,0.00
2023-01-01T03:05:50.013Z,0.00
2023-01-01T03:06:49.983Z,0.00
2023-01-01T03:07:50.009Z,0.00
2023-01-01T03:08:49.972Z,0.00
2023-01-01T03:09:49.962Z,0.00
2023-01-01T03:10:49.948Z,0.00
2023-01-01T03:11:49.942Z,0.00
2023-01-01T03:12:49.927Z,0.00
2023-01-01T03:13:49.920Z,0.00
2023-01-01T03:14:49.908Z,0.00
2023-01-01T03:15:49.938Z,0.00
2023-01-01T03:16:49.893Z,0.00
2023-01-01T03:17:49.882Z,0.00
2023-01-01T03:18:50.280Z,0.00
2023-01-01T03:19:50.577Z,0.00
2023-01-01T03:20:49.846Z,0.00
2023-01-01T03:21:49.830Z,0.00
2023-01-01T03:22:50.857Z,0.00
2023-01-01T03:23:50.305Z,0.00
2023-01-01T03:24:49.804Z,0.00
2023-01-01T03:25:49.791Z,0.00
2023-01-01T03:26:49.780Z,0.00
2023-01-01T03:27:49.762Z,0.00
2023-01-01T03:28:49.761Z,0.00
2023-01-01T03:29:49.741Z,0.00
2023-01-01T03:30:50.215Z,0.00
2023-01-01T03:31:49.726Z,0.00
2023-01-01T03:32:49.714Z,0.00
2023-01-01T03:33:50.113Z,0.00
2023-01-01T03:34:49.697Z,0.00
2023-01-01T03:35:49.687Z,0.00
2023-01-01T03:36:49.677Z,0.00
2023-01-01T03:37:49.666Z,0.00
2023-01-01T03:38:50.002Z,0.00
2023-01-01T03:39:49.638Z,0.00
2023-01-01T03:40:49.640Z,0.00
2023-01-01T03:41:49.618Z,0.00
2023-01-01T03:42:49.615Z,0.00
2023-01-01T03:43:49.618Z,0.00
2023-01-01T03:44:49.588Z,0.00
2023-01-01T03:45:49.615Z,0.00
2023-01-01T03:46:49.606Z,0.00
2023-01-01T03:47:50.033Z,0.00
2023-01-01T03:48:49.548Z,0.00
2023-01-01T03:49:49.531Z,0.00
2023-01-01T03:50:49.528Z,0.00
2023-01-01T03:51:49.508Z,0.00
2023-01-01T03:52:50.048Z,0.00
2023-01-01T03:53:49.495Z,0.00
2023-01-01T03:54:52.438Z,0.00
2023-01-01T03:55:49.481Z,0.00
2023-01-01T03:56:49.552Z,0.00
2023-01-01T03:57:49.442Z,0.00
2023-01-01T03:58:49.450Z,0.00
2023-01-01T03:59:49.420Z,0.00
2023-01-01T04:00:49.421Z,0.00
2023-01-01T04:01:49.808Z,0.00
2023-01-01T04:02:49.486Z,0.00
2023-01-01T04:03:49.382Z,0.00
2023-01-01T04:04:49.377Z,0.00
2023-01-01T04:05:49.368Z,0.00
2023-01-01T04:06:49.349Z,0.00
2023-01-01T04:08:21.295Z,0.00
2023-01-01T04:09:21.632Z,0.00
2023-01-01T04:10:21.642Z,0.00
2023-01-01T04:11:22.187Z,0.00
2023-01-01T04:12:21.606Z,0.00
2023-01-01T04:13:22.016Z,0.00
2023-01-01T04:14:21.593Z,0.00
2023-01-01T04:15:21.575Z,0.00
2023-01-01T04:16:21.629Z,0.00
2023-01-01T04:17:21.544Z,0.00
2023-01-01T04:18:22.121Z,0.00
2023-01-01T04:19:21.532Z,0.00
2023-01-01T04:20:21.520Z,0.00
2023-01-01T04:21:21.503Z,0.00
2023-01-01T04:22:21.502Z,0.00
2023-01-01T04:23:21.484Z,0.00
2023-01-01T04:24:21.483Z,0.00
2023-01-01T04:25:21.469Z,0.00
2023-01-01T04:26:22.201Z,0.00
2023-01-01T04:27:21.443Z,0.00
2023-01-01T04:28:21.437Z,0.00
2023-01-01T04:29:21.433Z,0.00
2023-01-01T04:30:21.406Z,0.00
2023-01-01T04:31:21.413Z,0.00
2023-01-01T04:32:21.404Z,0.00
2023-01-01T04:33:21.385Z,0.00
2023-01-01T04:34:21.383Z,0.00
2023-01-01T04:35:21.371Z,0.00
2023-01-01T04:36:22.161Z,0.00
2023-01-01T04:37:21.337Z,0.00
2023-01-01T04:38:21.326Z,0.00
2023-01-01T04:39:21.702Z,0.00
2023-01-01T04:40:21.309Z,0.00
2023-01-01T04:41:21.296Z,0.00
2023-01-01T04:42:21.646Z,0.00
2023-01-01T04:43:21.805Z,0.00
2023-01-01T04:44:21.268Z,0.00
2023-01-01T04:45:21.261Z,0.00
2023-01-01T04:46:21.253Z,0.00
2023-01-01T04:47:22.004Z,0.00
2023-01-01T04:48:21.221Z,0.00
2023-01-01T04:49:21.208Z,0.00
2023-01-01T04:50:21.202Z,0.00
2023-01-01T04:51:21.183Z,0.00
2023-01-01T04:52:21.183Z,0.00
2023-01-01T04:53:21.173Z,0.00
2023-01-01T04:54:21.161Z,0.00
2023-01-01T04:55:21.506Z,0.00
2023-01-01T04:56:21.142Z,0.00
2023-01-01T04:57:21.136Z,0.00
2023-01-01T04:58:21.630Z,0.00
2023-01-01T04:59:21.101Z,0.00
2023-01-01T05:00:21.103Z,0.00
2023-01-01T05:01:21.189Z,0.00
2023-01-01T05:02:21.162Z,0.00
2023-01-01T05:03:21.066Z,0.00
2023-01-01T05:04:21.060Z,0.00
2023-01-01T05:05:21.815Z,0.00
2023-01-01T05:06:21.043Z,0.00
2023-01-01T05:07:21.020Z,0.00
2023-01-01T05:08:21.014Z,0.00
2023-01-01T05:09:21.000Z,0.00
2023-01-01T05:10:21.409Z,0.00
2023-01-01T05:11:20.971Z,0.00
2023-01-01T05:12:20.973Z,0.00
2023-01-01T05:13:20.953Z,0.00
2023-01-01T05:14:21.527Z,0.00
2023-01-01T05:15:20.936Z,0.00
2023-01-01T05:16:20.980Z,0.00
2023-01-01T05:17:20.910Z,0.00
2023-01-01T05:18:20.902Z,0.00
2023-01-01T05:19:20.908Z,0.00
2023-01-01T05:20:20.894Z,0.00
2023-01-01T05:21:20.887Z,0.00
2023-01-01T05:22:20.864Z,0.00
2023-01-01T05:23:20.866Z,0.00
2023-01-01T05:24:21.275Z,0.00
2023-01-01T05:25:20.828Z,0.00
2023-01-01T05:26:20.816Z,0.00
2023-01-01T05:27:20.804Z,0.00
2023-01-01T05:28:20.800Z,0.00
2023-01-01T05:29:21.310Z,0.00
2023-01-01T05:30:20.777Z,0.00
2023-01-01T05:31:20.820Z,0.00
2023-01-01T05:32:20.753Z,0.00
2023-01-01T05:33:20.740Z,0.00
2023-01-01T05:34:20.741Z,0.00
2023-01-01T05:35:26.169Z,0.00
2023-01-01T05:36:21.127Z,0.00
2023-01-01T05:37:20.709Z,0.00
2023-01-01T05:38:20.692Z,0.00
2023-01-01T05:39:20.683Z,0.00
2023-01-01T05:40:21.102Z,0.00
2023-01-01T05:41:20.664Z,0.00
2023-01-01T05:42:20.649Z,0.00
2023-01-01T05:43:20.639Z,0.00
2023-01-01T05:44:20.628Z,0.00
2023-01-01T05:45:21.091Z,0.00
2023-01-01T05:46:20.665Z,0.00
2023-01-01T05:47:21.326Z,0.00
2023-01-01T05:48:20.588Z,0.00
2023-01-01T05:49:20.575Z,0.00
2023-01-01T05:50:20.570Z,0.00
2023-01-01T05:51:20.561Z,0.00
2023-01-01T05:52:26.232Z,0.00
2023-01-01T05:53:20.533Z,0.00
2023-01-01T05:54:51.878Z,0.00
2023-01-01T05:55:52.852Z,0.00
2023-01-01T05:56:53.635Z,0.00
2023-01-01T05:57:52.823Z,0.00
2023-01-01T05:58:52.835Z,0.00
2023-01-01T05:59:52.792Z,0.00
2023-01-01T06:00:52.799Z,0.00
2023-01-01T06:01:53.134Z,0.00
2023-01-01T06:02:52.808Z,0.00
2023-01-01T06:03:52.757Z,0.00
2023-01-01T06:04:52.843Z,0.00
2023-01-01T06:05:52.741Z,0.00
2023-01-01T06:06:53.523Z,0.00
2023-01-01T06:07:53.133Z,0.00
2023-01-01T06:08:52.738Z,0.00
2023-01-01T06:09:52.711Z,0.00
2023-01-01T06:10:52.694Z,0.00
2023-01-01T06:11:52.680Z,0.00
2023-01-01T06:12:52.672Z,0.00
2023-01-01T06:13:53.176Z,0.00
2023-01-01T06:14:52.646Z,0.00
2023-01-01T06:15:52.629Z,0.00
2023-01-01T06:16:52.634Z,0.00
2023-01-01T06:17:52.613Z,0.00
2023-01-01T06:18:52.608Z,0.00
2023-01-01T06:19:52.589Z,0.00
2023-01-01T06:20:52.974Z,0.00
2023-01-01T06:21:52.572Z,0.00
2023-01-01T06:22:52.572Z,0.00
2023-01-01T06:23:52.559Z,0.00
2023-01-01T06:24:52.556Z,0.00
2023-01-01T06:25:52.976Z,0.00
2023-01-01T06:26:53.407Z,0.00
2023-01-01T06:27:52.501Z,0.00
2023-01-01T06:28:52.506Z,0.00
2023-01-01T06:29:52.493Z,0.00
2023-01-01T06:30:52.949Z,0.00
2023-01-01T06:31:52.466Z,0.00
2023-01-01T06:32:52.460Z,0.00
2023-01-01T06:33:52.447Z,0.00
2023-01-01T06:34:52.454Z,0.00
2023-01-01T06:35:53.290Z,0.00
2023-01-01T06:36:52.454Z,0.00
2023-01-01T06:37:52.455Z,0.00
2023-01-01T06:38:52.404Z,0.00
2023-01-01T06:39:52.383Z,0.00
2023-01-01T06:40:52.383Z,0.00
2023-01-01T06:41:52.365Z,0.00
2023-01-01T06:42:52.359Z,0.00
2023-01-01T06:43:52.899Z,0.00
2023-01-01T06:44:52.337Z,0.00
2023-01-01T06:45:52.351Z,0.00
2023-01-01T06:46:52.318Z,0.00
2023-01-01T06:47:52.299Z,0.00
2023-01-01T06:48:52.626Z,0.00
2023-01-01T06:49:52.275Z,0.00
2023-01-01T06:50:52.273Z,0.00
2023-01-01T06:51:52.262Z,0.00
2023-01-01T06:52:52.257Z,0.00
2023-01-01T06:53:52.250Z,0.00
2023-01-01T06:54:52.270Z,0.00
2023-01-01T06:55:57.081Z,0.00
2023-01-01T06:56:52.232Z,0.00
2023-01-01T06:57:52.136Z,1.00
2023-01-01T06:58:52.208Z,0.00
2023-01-01T06:59:52.176Z,0.00
2023-01-01T07:00:52.177Z,0.00
2023-01-01T07:01:52.210Z,1.00
2023-01-01T07:02:52.290Z,1.00
2023-01-01T07:03:52.074Z,1.00
2023-01-01T07:04:52.079Z,1.00
2023-01-01T07:05:52.110Z,0.00
2023-01-01T07:06:52.830Z,0.00
2023-01-01T07:07:52.044Z,2.00
2023-01-01T07:08:52.031Z,1.00
2023-01-01T07:09:52.012Z,1.00
2023-01-01T07:10:52.022Z,3.00
2023-01-01T07:11:51.996Z,3.00
2023-01-01T07:12:51.997Z,1.00
2023-01-01T07:13:51.997Z,1.00
2023-01-01T07:14:51.968Z,1.00
2023-01-01T07:15:51.982Z,2.00
2023-01-01T07:16:51.944Z,6.00
2023-01-01T07:17:51.938Z,2.00
2023-01-01T07:18:51.922Z,2.00
2023-01-01T07:19:51.918Z,4.00
2023-01-01T07:20:51.913Z,5.00
2023-01-01T07:21:51.899Z,4.00
2023-01-01T07:22:51.892Z,5.00
2023-01-01T07:23:51.871Z,4.00
2023-01-01T07:24:51.863Z,5.00
2023-01-01T07:25:51.848Z,4.00
2023-01-01T07:26:51.837Z,5.00
2023-01-01T07:27:51.839Z,5.00
2023-01-01T07:28:52.203Z,6.00
2023-01-01T07:29:51.807Z,13.00
2023-01-01T07:30:51.858Z,13.00
2023-01-01T07:31:51.777Z,16.00
2023-01-01T07:32:51.777Z,11.00
2023-01-01T07:33:51.764Z,14.00
2023-01-01T07:34:51.756Z,18.00
2023-01-01T07:35:51.752Z,18.00
2023-01-01T07:36:51.748Z,17.00
2023-01-01T07:37:51.720Z,20.00
2023-01-01T07:38:51.721Z,22.00
2023-01-01T07:39:51.704Z,20.00
2023-01-01T07:40:51.704Z,21.00
2023-01-01T07:41:51.689Z,20.00
2023-01-01T07:42:52.086Z,20.00
2023-01-01T07:43:51.656Z,24.00
2023-01-01T07:44:51.660Z,23.00
2023-01-01T07:45:51.684Z,23.00
2023-01-01T07:46:51.704Z,32.00
2023-01-01T07:47:52.003Z,29.00
2023-01-01T07:48:51.618Z,40.00
2023-01-01T07:49:51.593Z,41.00
2023-01-01T07:50:51.595Z,41.00
2023-01-01T07:51:51.573Z,46.00
2023-01-01T07:52:51.965Z,42.00
2023-01-01T07:53:51.560Z,50.00
2023-01-01T07:54:51.556Z,46.00
2023-01-01T07:55:51.527Z,53.00
2023-01-01T07:56:51.534Z,60.00
2023-01-01T07:57:51.512Z,73.00
2023-01-01T07:58:51.509Z,62.00
2023-01-01T07:59:51.497Z,59.00
2023-01-01T08:00:51.483Z,89.00
2023-01-01T08:01:51.535Z,93.00
2023-01-01T08:02:51.965Z,93.00
2023-01-01T08:03:51.455Z,104.00
2023-01-01T08:04:51.437Z,104.00
2023-01-01T08:05:52.287Z,110.00
2023-01-01T08:06:51.417Z,127.00
2023-01-01T08:07:51.410Z,176.00
2023-01-01T08:08:51.399Z,157.00
2023-01-01T08:09:51.396Z,178.00
2023-01-01T08:10:51.736Z,136.00
2023-01-01T08:11:51.367Z,183.00
2023-01-01T08:12:51.369Z,181.00
2023-01-01T08:13:51.740Z,168.00
2023-01-01T08:14:51.332Z,173.00
2023-01-01T08:15:51.360Z,245.00
2023-01-01T08:16:51.311Z,244.00
2023-01-01T08:17:51.306Z,270.00
2023-01-01T08:18:51.293Z,259.00
2023-01-01T08:19:51.284Z,299.00
2023-01-01T08:20:51.643Z,392.00
2023-01-01T08:21:51.263Z,330.00
2023-01-01T08:22:51.275Z,352.00
2023-01-01T08:23:51.265Z,324.00
2023-01-01T08:24:51.239Z,343.00
2023-01-01T08:25:51.633Z,362.00
2023-01-01T08:26:51.204Z,377.00
2023-01-01T08:27:51.201Z,338.00
2023-01-01T08:28:56.977Z,351.00
2023-01-01T08:29:51.190Z,332.00
2023-01-01T08:30:51.178Z,376.00
2023-01-01T08:31:51.184Z,405.00
2023-01-01T08:32:51.147Z,449.00
2023-01-01T08:33:51.141Z,328.00
2023-01-01T08:34:51.121Z,621.00
2023-01-01T08:35:54.284Z,520.00
2023-01-01T08:36:51.104Z,451.00
2023-01-01T08:37:51.101Z,442.00
2023-01-01T08:38:51.523Z,513.00
2023-01-01T08:39:51.084Z,450.00
2023-01-01T08:40:51.075Z,575.00
2023-01-01T08:41:51.477Z,581.00
2023-01-01T08:42:51.061Z,489.00
2023-01-01T08:43:51.033Z,436.00
2023-01-01T08:44:51.030Z,382.00
2023-01-01T08:45:51.019Z,651.00
2023-01-01T08:46:51.042Z,675.00
2023-01-01T08:47:50.995Z,776.00
2023-01-01T08:48:50.983Z,311.00
2023-01-01T08:49:50.994Z,663.00
2023-01-01T08:50:50.962Z,436.00
2023-01-01T08:51:51.195Z,415.00
2023-01-01T08:52:50.941Z,400.00
2023-01-01T08:53:51.713Z,399.00
2023-01-01T08:54:50.921Z,384.00
2023-01-01T08:55:50.909Z,382.00
2023-01-01T08:56:51.398Z,374.00
2023-01-01T08:57:50.893Z,365.00
2023-01-01T08:58:50.880Z,351.00
2023-01-01T08:59:50.865Z,296.00
2023-01-01T09:00:50.854Z,491.00
2023-01-01T09:01:50.984Z,420.00
2023-01-01T09:02:51.408Z,333.00
2023-01-01T09:03:50.821Z,288.00
2023-01-01T09:04:50.811Z,365.00
2023-01-01T09:05:50.804Z,313.00
2023-01-01T09:06:50.796Z,291.00
2023-01-01T09:07:50.825Z,285.00
2023-01-01T09:08:50.764Z,286.00
2023-01-01T09:09:50.780Z,305.00
2023-01-01T09:10:50.743Z,375.00
2023-01-01T09:11:50.737Z,391.00
2023-01-01T09:12:50.721Z,356.00
2023-01-01T09:13:51.187Z,319.00
2023-01-01T09:14:50.722Z,330.00
2023-01-01T09:15:50.770Z,317.00
2023-01-01T09:16:50.729Z,311.00
2023-01-01T09:17:50.669Z,294.00
2023-01-01T09:18:50.664Z,290.00
2023-01-01T09:19:50.655Z,271.00
2023-01-01T09:20:50.645Z,237.00
2023-01-01T09:21:50.636Z,210.00
2023-01-01T09:22:50.627Z,179.00
2023-01-01T09:23:50.608Z,172.00
2023-01-01T09:24:50.680Z,165.00
2023-01-01T09:25:50.591Z,167.00
2023-01-01T09:26:50.608Z,161.00
2023-01-01T09:27:50.565Z,144.00
2023-01-01T09:28:50.551Z,152.00
2023-01-01T09:29:51.082Z,164.00
2023-01-01T09:30:50.537Z,167.00
2023-01-01T09:31:51.381Z,175.00
2023-01-01T09:32:50.510Z,181.00
2023-01-01T09:33:50.504Z,194.00
2023-01-01T09:34:52.337Z,194.00
2023-01-01T09:35:51.303Z,210.00
2023-01-01T09:36:50.483Z,230.00
2023-01-01T09:37:50.473Z,245.00
2023-01-01T09:38:50.446Z,258.00
2023-01-01T09:39:50.447Z,251.00
2023-01-01T09:40:51.549Z,237.00
2023-01-01T09:41:50.440Z,230.00
2023-01-01T09:42:50.418Z,235.00
2023-01-01T09:43:50.406Z,241.00
2023-01-01T09:44:50.387Z,220.00
2023-01-01T09:45:50.432Z,216.00
2023-01-01T09:46:50.746Z,201.00
2023-01-01T09:47:50.385Z,199.00
2023-01-01T09:48:50.371Z,202.00
2023-01-01T09:49:50.337Z,201.00
2023-01-01T09:50:50.343Z,188.00
2023-01-01T09:51:57.531Z,204.00
2023-01-01T09:52:50.316Z,227.00
2023-01-01T09:53:50.297Z,227.00
2023-01-01T09:54:50.284Z,221.00
2023-01-01T09:55:50.309Z,230.00
2023-01-01T09:56:50.275Z,246.00
2023-01-01T09:57:50.262Z,246.00
2023-01-01T09:58:50.256Z,276.00
2023-01-01T09:59:50.259Z,295.00
2023-01-01T10:00:50.239Z,315.00
2023-01-01T10:01:50.432Z,337.00
2023-01-01T10:02:53.567Z,385.00
2023-01-01T10:03:50.297Z,422.00
2023-01-01T10:04:50.182Z,414.00
2023-01-01T10:05:50.173Z,406.00
2023-01-01T10:06:50.163Z,394.00
2023-01-01T10:07:50.158Z,392.00
2023-01-01T10:08:50.143Z,384.00
2023-01-01T10:09:50.163Z,353.00
2023-01-01T10:10:50.116Z,328.00
2023-01-01T10:11:50.117Z,295.00
2023-01-01T10:12:50.105Z,267.00
2023-01-01T10:13:50.093Z,248.00
2023-01-01T10:14:50.076Z,225.00
2023-01-01T10:15:50.096Z,227.00
2023-01-01T10:16:50.529Z,234.00
2023-01-01T10:17:50.051Z,222.00
2023-01-01T10:18:50.383Z,214.00
2023-01-01T10:19:50.060Z,202.00
2023-01-01T10:20:50.021Z,198.00
2023-01-01T10:21:50.010Z,196.00
2023-01-01T10:22:49.992Z,185.00
2023-01-01T10:23:50.180Z,186.00
2023-01-01T10:24:49.969Z,198.00
2023-01-01T10:25:49.975Z,214.00
2023-01-01T10:26:49.950Z,212.00
2023-01-01T10:27:55.456Z,211.00
2023-01-01T10:28:50.329Z,205.00
2023-01-01T10:29:49.933Z,192.00
2023-01-01T10:30:49.924Z,196.00
2023-01-01T10:31:49.972Z,190.00
2023-01-01T10:32:49.907Z,179.00
2023-01-01T10:33:49.885Z,177.00
2023-01-01T10:34:49.904Z,192.00
2023-01-01T10:35:49.862Z,198.00
2023-01-01T10:36:49.845Z,197.00
2023-01-01T10:37:49.845Z,202.00
2023-01-01T10:38:50.598Z,205.00
2023-01-01T10:39:49.820Z,202.00
2023-01-01T10:40:49.804Z,219.00
2023-01-01T10:41:49.797Z,239.00
2023-01-01T10:42:50.285Z,231.00
2023-01-01T10:43:49.784Z,240.00
2023-01-01T10:44:50.018Z,229.00
2023-01-01T10:45:49.792Z,229.00
2023-01-01T10:46:49.745Z,221.00
2023-01-01T10:47:49.737Z,225.00
2023-01-01T10:48:49.723Z,218.00
2023-01-01T10:49:50.321Z,221.00
2023-01-01T10:50:49.708Z,229.00
2023-01-01T10:51:49.697Z,227.00
2023-01-01T10:52:49.732Z,223.00
2023-01-01T10:53:49.671Z,216.00
2023-01-01T10:54:49.655Z,222.00
2023-01-01T10:55:49.661Z,245.00
2023-01-01T10:56:49.667Z,249.00
2023-01-01T10:57:49.672Z,246.00
2023-01-01T10:58:49.628Z,276.00
2023-01-01T10:59:54.294Z,320.00
2023-01-01T11:00:49.639Z,389.00
2023-01-01T11:01:49.688Z,439.00
2023-01-01T11:02:49.626Z,399.00
2023-01-01T11:03:49.578Z,360.00
2023-01-01T11:04:49.586Z,352.00
2023-01-01T11:05:49.937Z,325.00
2023-01-01T11:06:49.561Z,286.00
2023-01-01T11:07:49.531Z,282.00
2023-01-01T11:08:50.059Z,297.00
2023-01-01T11:10:02.627Z,331.00
2023-01-01T11:10:49.506Z,354.00
2023-01-01T11:11:49.483Z,316.00
2023-01-01T11:13:06.105Z,295.00
2023-01-01T11:13:49.563Z,299.00
2023-01-01T11:14:49.455Z,299.00
2023-01-01T11:15:49.446Z,264.00
2023-01-01T11:16:49.496Z,271.00
2023-01-01T11:17:49.892Z,271.00
2023-01-01T11:18:49.525Z,317.00
2023-01-01T11:19:52.669Z,266.00
2023-01-01T11:20:49.397Z,244.00
2023-01-01T11:21:49.393Z,239.00
2023-01-01T11:22:49.373Z,235.00
2023-01-01T11:23:49.624Z,260.00
2023-01-01T11:24:49.353Z,266.00
2023-01-01T11:25:49.338Z,289.00
2023-01-01T11:26:54.629Z,285.00
2023-01-01T11:27:49.333Z,314.00
2023-01-01T11:28:49.304Z,352.00
2023-01-01T11:29:49.330Z,329.00
2023-01-01T11:30:49.332Z,346.00
2023-01-01T11:31:49.302Z,426.00
2023-01-01T11:32:55.259Z,496.00
2023-01-01T11:33:49.296Z,502.00
2023-01-01T11:34:49.263Z,545.00
2023-01-01T11:35:49.253Z,515.00
2023-01-01T11:36:49.224Z,505.00
2023-01-01T11:37:49.221Z,494.00
2023-01-01T11:38:49.222Z,560.00
2023-01-01T11:39:49.229Z,450.00
2023-01-01T11:40:49.200Z,405.00
2023-01-01T11:41:49.189Z,430.00
2023-01-01T11:42:49.174Z,514.00
2023-01-01T11:43:49.164Z,562.00
2023-01-01T11:44:49.500Z,618.00
2023-01-01T11:45:49.164Z,559.00
2023-01-01T11:46:49.534Z,560.00
2023-01-01T11:47:49.566Z,598.00
2023-01-01T11:48:49.096Z,619.00
2023-01-01T11:49:49.096Z,644.00
2023-01-01T11:50:53.750Z,592.00
2023-01-01T11:51:49.084Z,499.00
2023-01-01T11:52:49.460Z,644.00
2023-01-01T11:53:49.055Z,741.00
2023-01-01T11:54:49.041Z,514.00
2023-01-01T11:55:49.063Z,537.00
2023-01-01T11:56:49.021Z,876.00
2023-01-01T11:57:49.021Z,725.00
2023-01-01T11:58:49.012Z,1370.00
2023-01-01T11:59:49.483Z,1167.00
2023-01-01T12:00:48.976Z,772.00
2023-01-01T12:01:49.138Z,971.00
2023-01-01T12:02:48.972Z,1228.00
2023-01-01T12:03:48.984Z,710.00
2023-01-01T12:04:48.961Z,594.00
2023-01-01T12:05:48.983Z,411.00
2023-01-01T12:06:48.968Z,1001.00
2023-01-01T12:07:48.909Z,1027.00
2023-01-01T12:08:48.895Z,667.00
2023-01-01T12:09:48.895Z,865.00
2023-01-01T12:10:48.896Z,800.00
2023-01-01T12:11:48.879Z,1076.00
2023-01-01T12:12:48.854Z,1053.00
2023-01-01T12:13:48.847Z,840.00
2023-01-01T12:14:48.830Z,763.00
2023-01-01T12:15:48.852Z,1245.00
2023-01-01T12:16:48.831Z,1681.00
2023-01-01T12:17:49.184Z,1083.00
2023-01-01T12:18:48.801Z,629.00
2023-01-01T12:19:48.779Z,486.00
2023-01-01T12:20:48.781Z,440.00
2023-01-01T12:21:52.630Z,448.00
2023-01-01T12:22:48.755Z,412.00
2023-01-01T12:23:49.148Z,360.00
2023-01-01T12:24:48.734Z,333.00
2023-01-01T12:25:48.724Z,304.00
2023-01-01T12:26:49.281Z,282.00
2023-01-01T12:27:48.712Z,274.00
2023-01-01T12:28:48.697Z,287.00
2023-01-01T12:29:48.677Z,285.00
2023-01-01T12:30:48.726Z,276.00
2023-01-01T12:31:49.143Z,270.00
2023-01-01T12:32:48.658Z,286.00
2023-01-01T12:33:48.636Z,248.00
2023-01-01T12:34:48.644Z,230.00
2023-01-01T12:35:48.617Z,214.00
2023-01-01T12:36:49.020Z,188.00
2023-01-01T12:37:48.593Z,186.00
2023-01-01T12:38:48.603Z,187.00
2023-01-01T12:39:48.578Z,184.00
2023-01-01T12:40:48.565Z,172.00
2023-01-01T12:41:48.994Z,151.00
2023-01-01T12:42:48.572Z,132.00
2023-01-01T12:43:48.535Z,121.00
2023-01-01T12:44:48.537Z,115.00
2023-01-01T12:45:48.526Z,112.00
2023-01-01T12:46:48.537Z,111.00
2023-01-01T12:47:48.493Z,112.00
2023-01-01T12:48:48.489Z,113.00
2023-01-01T12:49:48.484Z,111.00
2023-01-01T12:50:55.121Z,110.00
2023-01-01T12:51:48.479Z,112.00
2023-01-01T12:52:48.464Z,115.00
2023-01-01T12:53:48.435Z,117.00
2023-01-01T12:54:48.434Z,123.00
2023-01-01T12:55:48.472Z,127.00
2023-01-01T12:56:48.426Z,130.00
2023-01-01T12:57:48.407Z,133.00
2023-01-01T12:58:48.403Z,138.00